createdAt,value
2022-09-29T00:00:58.890Z,9.93
2022-09-29T00:03:26.862Z,9.43
2022-09-29T00:05:56.732Z,12.10
2022-09-29T00:08:27.627Z,10.70
2022-09-29T00:10:55.872Z,7.50
2022-09-29T00:13:24.800Z,8.47
2022-09-29T00:16:03.190Z,10.70
2022-09-29T00:18:32.900Z,8.03
2022-09-29T00:21:02.777Z,6.90
2022-09-29T00:23:32.395Z,8.47
2022-09-29T00:26:02.916Z,11.60
2022-09-29T00:28:31.665Z,9.03
2022-09-29T00:31:02.144Z,8.43
2022-09-29T00:33:31.597Z,8.90
2022-09-29T00:36:02.488Z,8.07
2022-09-29T00:38:31.643Z,8.90
2022-09-29T00:41:00.099Z,8.87
2022-09-29T00:43:50.155Z,8.80
2022-09-29T00:46:24.400Z,7.37
2022-09-29T00:48:53.430Z,8.80
2022-09-29T00:51:22.265Z,6.97
2022-09-29T00:53:50.708Z,10.23
2022-09-29T00:56:20.741Z,8.40
2022-09-29T00:58:55.326Z,9.17
2022-09-29T01:01:27.981Z,7.87
2022-09-29T01:04:00.944Z,7.63
2022-09-29T01:06:33.480Z,6.57
2022-09-29T01:09:04.304Z,6.43
2022-09-29T01:11:32.810Z,6.77
2022-09-29T01:14:03.880Z,9.40
2022-09-29T01:16:34.890Z,7.50
2022-09-29T01:19:06.825Z,7.00
2022-09-29T01:21:42.986Z,8.00
2022-09-29T01:24:29.611Z,7.50
2022-09-29T01:27:11.059Z,7.37
2022-09-29T01:30:01.449Z,6.17
2022-09-29T01:32:52.972Z,6.63
2022-09-29T01:35:28.304Z,7.80
2022-09-29T01:38:09.063Z,6.80
2022-09-29T01:40:46.497Z,7.10
2022-09-29T01:43:19.226Z,7.23
2022-09-29T01:45:52.747Z,6.60
2022-09-29T01:48:26.473Z,7.40
2022-09-29T01:50:57.853Z,7.80
2022-09-29T01:53:34.877Z,6.90
2022-09-29T01:56:06.749Z,6.77
2022-09-29T01:58:40.569Z,6.20
2022-09-29T02:01:13.079Z,6.97
2022-09-29T02:03:47.918Z,7.10
2022-09-29T02:06:20.643Z,6.70
2022-09-29T02:08:52.340Z,7.57
2022-09-29T02:11:20.867Z,7.33
2022-09-29T02:13:54.949Z,7.67
2022-09-29T02:16:27.096Z,7.40
2022-09-29T02:18:58.811Z,7.90
2022-09-29T02:21:29.182Z,7.27
2022-09-29T02:23:58.148Z,8.70
2022-09-29T02:26:29.714Z,8.70
2022-09-29T02:28:57.921Z,7.80
2022-09-29T02:31:26.203Z,7.47
2022-09-29T02:33:54.249Z,8.53
2022-09-29T02:36:31.526Z,8.70
2022-09-29T02:39:05.969Z,9.00
2022-09-29T02:41:48.120Z,10.00
2022-09-29T02:44:34.830Z,7.50
2022-09-29T02:47:25.045Z,7.70
2022-09-29T02:50:08.028Z,7.20
2022-09-29T02:52:47.601Z,7.67
2022-09-29T02:55:20.677Z,6.97
2022-09-29T02:57:54.949Z,7.57
2022-09-29T03:00:23.604Z,8.80
2022-09-29T03:02:51.521Z,7.93
2022-09-29T03:05:21.480Z,7.90
2022-09-29T03:07:50.916Z,6.80
2022-09-29T03:10:20.169Z,11.53
2022-09-29T03:12:48.200Z,7.23
2022-09-29T03:15:17.737Z,6.87
2022-09-29T03:17:45.693Z,7.83
2022-09-29T03:20:13.765Z,7.00
2022-09-29T03:22:41.784Z,7.63
2022-09-29T03:25:13.232Z,8.53
2022-09-29T03:27:41.273Z,8.27
2022-09-29T03:30:10.715Z,6.67
2022-09-29T03:32:38.732Z,9.93
2022-09-29T03:35:08.098Z,7.97
2022-09-29T03:37:36.557Z,8.00
2022-09-29T03:40:06.282Z,9.93
2022-09-29T03:42:35.633Z,6.77
2022-09-29T03:45:03.753Z,7.33
2022-09-29T03:47:31.749Z,7.47
2022-09-29T03:49:59.685Z,7.13
2022-09-29T03:52:28.054Z,9.50
2022-09-29T03:54:55.991Z,8.47
2022-09-29T03:57:23.900Z,6.33
2022-09-29T03:59:54.162Z,8.27
2022-09-29T04:02:22.169Z,7.80
2022-09-29T04:04:50.201Z,10.23
2022-09-29T04:07:18.297Z,8.43
2022-09-29T04:09:46.228Z,7.57
2022-09-29T04:12:14.192Z,7.73
2022-09-29T04:14:42.547Z,7.60
2022-09-29T04:17:11.843Z,7.10
2022-09-29T04:19:40.035Z,8.33
2022-09-29T04:22:08.727Z,8.40
2022-09-29T04:24:36.636Z,8.33
2022-09-29T04:27:04.684Z,8.13
2022-09-29T04:29:33.061Z,8.23
2022-09-29T04:32:01.149Z,7.63
2022-09-29T04:34:30.509Z,7.57
2022-09-29T04:36:58.553Z,9.53
2022-09-29T04:39:26.505Z,7.93
2022-09-29T04:41:54.491Z,7.27
2022-09-29T04:44:25.330Z,8.57
2022-09-29T04:46:53.384Z,9.10
2022-09-29T04:49:21.461Z,8.63
2022-09-29T04:51:51.035Z,6.80
2022-09-29T04:54:18.988Z,8.80
2022-09-29T04:56:49.429Z,7.43
2022-09-29T04:59:18.478Z,7.60
2022-09-29T05:01:46.472Z,12.23
2022-09-29T05:04:14.449Z,7.67
2022-09-29T05:06:42.852Z,7.83
2022-09-29T05:09:12.481Z,8.43
2022-09-29T05:11:40.454Z,8.63
2022-09-29T05:14:08.984Z,8.90
2022-09-29T05:16:36.950Z,8.77
2022-09-29T05:19:05.040Z,9.10
2022-09-29T05:21:33.383Z,9.03
2022-09-29T05:24:01.696Z,9.47
2022-09-29T05:26:31.004Z,8.47
2022-09-29T05:28:59.029Z,9.07
2022-09-29T05:31:31.476Z,9.73
2022-09-29T05:34:09.670Z,9.93
2022-09-29T05:36:38.560Z,9.27
2022-09-29T05:39:06.541Z,10.93
2022-09-29T05:41:35.875Z,11.60
2022-09-29T05:44:04.321Z,10.53
2022-09-29T05:46:32.386Z,11.63
2022-09-29T05:49:00.738Z,12.53
2022-09-29T05:51:28.871Z,11.43
2022-09-29T05:53:56.793Z,15.43
2022-09-29T05:56:27.934Z,12.47
2022-09-29T05:58:57.232Z,13.73
2022-09-29T06:01:27.660Z,14.30
2022-09-29T06:03:56.368Z,13.60
2022-09-29T06:06:25.842Z,15.47
2022-09-29T06:08:54.323Z,16.73
2022-09-29T06:11:24.633Z,34.13
2022-09-29T06:13:54.240Z,34.23
2022-09-29T06:16:25.512Z,15.03
2022-09-29T06:18:53.811Z,17.20
2022-09-29T06:21:24.477Z,60.80
2022-09-29T06:23:53.355Z,12.53
2022-09-29T06:26:24.270Z,12.40
2022-09-29T06:28:52.795Z,37.13
2022-09-29T06:31:24.700Z,22.77
2022-09-29T06:33:53.089Z,74.80
2022-09-29T06:36:41.784Z,12.50
2022-09-29T06:39:12.044Z,12.63
2022-09-29T06:41:40.098Z,11.47
2022-09-29T06:44:08.005Z,20.07
2022-09-29T06:46:37.471Z,12.23
2022-09-29T06:49:05.401Z,13.87
2022-09-29T06:51:43.969Z,12.63
2022-09-29T06:54:14.287Z,14.63
2022-09-29T06:56:42.535Z,14.30
2022-09-29T06:59:10.493Z,14.50
2022-09-29T07:01:39.958Z,14.30
2022-09-29T07:04:07.993Z,14.13
2022-09-29T07:06:35.923Z,13.47
2022-09-29T07:09:04.215Z,15.07
2022-09-29T07:11:32.404Z,13.77
2022-09-29T07:14:00.437Z,15.87
2022-09-29T07:16:28.580Z,15.23
2022-09-29T07:18:57.940Z,15.97
2022-09-29T07:21:25.894Z,16.07
2022-09-29T07:23:55.908Z,15.77
2022-09-29T07:26:26.718Z,17.70
2022-09-29T07:28:54.804Z,17.50
2022-09-29T07:31:23.230Z,19.83
2022-09-29T07:33:52.867Z,19.70
2022-09-29T07:36:22.415Z,19.90
2022-09-29T07:38:51.993Z,17.57
2022-09-29T07:41:21.605Z,19.30
2022-09-29T07:43:50.565Z,20.07
2022-09-29T07:46:18.682Z,19.57
2022-09-29T07:48:46.958Z,20.77
2022-09-29T07:51:16.990Z,17.60
2022-09-29T07:53:46.631Z,18.53
2022-09-29T07:56:18.461Z,18.27
2022-09-29T07:58:46.980Z,18.20
2022-09-29T08:01:16.216Z,19.10
2022-09-29T08:03:47.233Z,21.17
2022-09-29T08:06:16.617Z,19.90
2022-09-29T08:08:57.914Z,21.67
2022-09-29T08:11:31.445Z,20.47
2022-09-29T08:13:59.916Z,20.80
2022-09-29T08:16:27.986Z,21.90
2022-09-29T08:18:56.429Z,20.70
2022-09-29T08:21:24.382Z,20.03
2022-09-29T08:23:53.942Z,21.47
2022-09-29T08:26:37.448Z,20.97
2022-09-29T08:29:08.946Z,21.10
2022-09-29T08:31:38.781Z,20.57
2022-09-29T08:34:07.969Z,22.30
2022-09-29T08:36:36.652Z,19.97
2022-09-29T08:39:06.383Z,20.57
2022-09-29T08:41:47.399Z,20.73
2022-09-29T08:44:36.970Z,18.77
2022-09-29T08:47:18.062Z,19.03
2022-09-29T08:49:49.520Z,17.23
2022-09-29T08:52:22.269Z,19.90
2022-09-29T08:54:56.677Z,19.60
2022-09-29T08:57:25.709Z,19.87
2022-09-29T08:59:56.438Z,19.30
2022-09-29T09:02:41.750Z,17.67
2022-09-29T09:05:19.649Z,20.50
2022-09-29T09:07:55.711Z,20.50
2022-09-29T09:10:37.680Z,21.53
2022-09-29T09:13:19.739Z,19.33
2022-09-29T09:16:07.644Z,18.57
2022-09-29T09:18:51.991Z,19.40
2022-09-29T09:21:26.086Z,19.30
2022-09-29T09:24:00.001Z,19.83
2022-09-29T09:26:35.261Z,17.80
2022-09-29T09:29:06.464Z,18.53
2022-09-29T09:31:41.364Z,19.63
2022-09-29T09:34:18.231Z,19.27
2022-09-29T09:36:59.969Z,18.50
2022-09-29T09:39:35.535Z,18.83
2022-09-29T09:42:10.204Z,18.58
2022-09-29T09:44:42.882Z,18.57
2022-09-29T09:47:25.430Z,17.67
2022-09-29T09:49:58.270Z,18.13
2022-09-29T09:52:32.396Z,16.45
2022-09-29T09:55:04.482Z,16.30
2022-09-29T09:57:55.695Z,17.25
2022-09-29T10:00:26.547Z,16.13
2022-09-29T10:02:57.903Z,15.63
2022-09-29T10:05:31.344Z,15.25
2022-09-29T10:08:00.393Z,16.15
2022-09-29T10:10:30.440Z,11.00
2022-09-29T10:13:04.331Z,13.07
2022-09-29T10:15:38.827Z,11.27
2022-09-29T10:18:14.067Z,9.60
2022-09-29T10:20:42.839Z,12.73
2022-09-29T10:23:25.065Z,12.45
2022-09-29T10:25:56.304Z,11.07
2022-09-29T10:28:27.436Z,11.63
2022-09-29T10:30:56.652Z,11.40
2022-09-29T10:33:27.572Z,11.95
2022-09-29T10:36:08.538Z,12.70
2022-09-29T10:38:38.598Z,13.35
2022-09-29T10:41:08.688Z,12.43
2022-09-29T10:43:41.140Z,12.45
2022-09-29T10:46:38.461Z,11.65
2022-09-29T10:49:11.585Z,11.00
2022-09-29T10:51:41.341Z,11.48
2022-09-29T10:54:10.141Z,10.85
2022-09-29T10:56:45.731Z,9.50
2022-09-29T10:59:16.195Z,8.75
2022-09-29T11:01:49.826Z,8.85
2022-09-29T11:04:23.238Z,8.25
2022-09-29T11:06:52.126Z,7.63
2022-09-29T11:09:38.856Z,8.23
2022-09-29T11:12:09.463Z,7.70
2022-09-29T11:14:43.348Z,9.60
2022-09-29T11:17:25.833Z,7.97
2022-09-29T11:19:55.627Z,6.75
2022-09-29T11:22:47.357Z,6.55
2022-09-29T11:25:37.971Z,8.00
2022-09-29T11:28:20.893Z,7.63
2022-09-29T11:31:02.630Z,8.20
2022-09-29T11:33:41.735Z,7.75
2022-09-29T11:36:20.956Z,5.85
2022-09-29T11:38:59.222Z,6.68
2022-09-29T11:41:41.957Z,6.10
2022-09-29T11:44:24.447Z,6.00
2022-09-29T11:47:08.405Z,5.53
2022-09-29T11:49:58.694Z,6.10
2022-09-29T11:52:49.590Z,5.40
2022-09-29T11:55:38.122Z,5.10
2022-09-29T11:58:20.547Z,6.47
2022-09-29T12:01:03.170Z,4.57
2022-09-29T12:03:41.800Z,5.45
2022-09-29T12:06:34.002Z,5.07
2022-09-29T12:09:19.013Z,4.35
2022-09-29T12:12:18.956Z,5.00
2022-09-29T12:14:58.176Z,5.30
2022-09-29T12:17:31.558Z,4.75
2022-09-29T12:20:05.987Z,4.75
2022-09-29T12:22:36.993Z,4.97
2022-09-29T12:25:07.297Z,5.55
2022-09-29T12:27:41.081Z,4.40
2022-09-29T12:30:19.483Z,4.78
2022-09-29T12:32:52.614Z,4.00
2022-09-29T12:35:29.951Z,3.90
2022-09-29T12:38:02.597Z,3.50
2022-09-29T12:40:35.331Z,3.65
2022-09-29T12:43:14.615Z,3.45
2022-09-29T12:45:52.710Z,2.97
2022-09-29T12:48:34.200Z,3.75
2022-09-29T12:51:10.985Z,3.35
2022-09-29T12:53:44.243Z,3.40
2022-09-29T12:56:21.940Z,3.10
2022-09-29T12:58:55.241Z,3.45
2022-09-29T13:01:28.139Z,2.67
2022-09-29T13:04:35.131Z,3.17
2022-09-29T13:07:38.601Z,3.15
2022-09-29T13:10:48.252Z,3.30
2022-09-29T13:13:42.813Z,3.13
2022-09-29T13:16:20.730Z,3.55
2022-09-29T13:19:20.412Z,2.90
2022-09-29T13:22:08.250Z,3.35
2022-09-29T13:24:51.425Z,3.45
2022-09-29T13:27:32.871Z,3.50
2022-09-29T13:30:07.564Z,3.15
2022-09-29T13:32:41.485Z,3.75
2022-09-29T13:35:18.271Z,3.22
2022-09-29T13:37:50.205Z,3.83
2022-09-29T13:40:25.637Z,3.10
2022-09-29T13:42:57.185Z,4.20
2022-09-29T13:45:41.219Z,4.03
2022-09-29T13:48:35.951Z,3.08
2022-09-29T13:51:27.139Z,3.40
2022-09-29T13:54:27.923Z,3.70
2022-09-29T13:57:28.604Z,3.45
2022-09-29T14:00:24.886Z,3.20
2022-09-29T14:03:05.271Z,3.13
2022-09-29T14:05:55.737Z,2.35
2022-09-29T14:08:28.714Z,1.92
2022-09-29T14:11:05.926Z,1.83
2022-09-29T14:13:45.742Z,4.60
2022-09-29T14:16:32.235Z,1.80
2022-09-29T14:19:07.832Z,4.07
2022-09-29T14:21:51.377Z,1.98
2022-09-29T14:24:44.476Z,2.17
2022-09-29T14:27:24.487Z,1.55
2022-09-29T14:29:59.937Z,1.50
2022-09-29T14:32:40.997Z,0.98
2022-09-29T14:35:20.618Z,2.33
2022-09-29T14:37:57.958Z,1.30
2022-09-29T14:40:31.908Z,1.48
2022-09-29T14:43:10.615Z,2.30
2022-09-29T14:46:15.943Z,1.70
2022-09-29T14:49:13.600Z,1.27
2022-09-29T14:52:01.025Z,1.23
2022-09-29T14:54:44.272Z,1.30
2022-09-29T14:57:25.531Z,1.85
2022-09-29T15:00:03.881Z,1.70
2022-09-29T15:02:36.940Z,1.60
2022-09-29T15:05:14.629Z,2.03
2022-09-29T15:07:43.456Z,1.92
2022-09-29T15:10:24.076Z,1.55
2022-09-29T15:12:52.105Z,2.20
2022-09-29T15:15:35.635Z,2.58
2022-09-29T15:18:20.655Z,3.17
2022-09-29T15:21:00.611Z,1.85
2022-09-29T15:23:57.424Z,1.27
2022-09-29T15:26:29.427Z,1.75
2022-09-29T15:28:57.870Z,0.95
2022-09-29T15:31:30.732Z,0.85
2022-09-29T15:34:00.165Z,0.90
2022-09-29T15:36:33.578Z,1.60
2022-09-29T15:39:05.988Z,1.13
2022-09-29T15:41:36.049Z,1.45
2022-09-29T15:44:13.258Z,1.23
2022-09-29T15:46:49.326Z,1.30
2022-09-29T15:49:21.250Z,1.30
2022-09-29T15:51:58.378Z,1.25
2022-09-29T15:54:29.671Z,1.17
2022-09-29T15:57:15.248Z,1.48
2022-09-29T15:59:48.926Z,1.85
2022-09-29T16:02:25.047Z,1.40
2022-09-29T16:04:57.793Z,1.63
2022-09-29T16:07:29.396Z,1.60
2022-09-29T16:10:07.562Z,1.58
2022-09-29T16:12:39.984Z,1.65
2022-09-29T16:15:17.633Z,1.95
2022-09-29T16:17:48.714Z,4.10
2022-09-29T16:20:29.215Z,3.63
2022-09-29T16:22:57.431Z,1.52
2022-09-29T16:25:27.754Z,1.58
2022-09-29T16:27:57.525Z,1.88
2022-09-29T16:30:28.654Z,2.20
2022-09-29T16:33:03.966Z,1.95
2022-09-29T16:35:42.418Z,2.00
2022-09-29T16:38:24.782Z,2.08
2022-09-29T16:40:56.723Z,1.90
2022-09-29T16:43:28.257Z,1.70
2022-09-29T16:45:58.296Z,1.40
2022-09-29T16:48:28.832Z,2.03
2022-09-29T16:51:03.470Z,1.40
2022-09-29T16:53:34.869Z,1.60
2022-09-29T16:56:05.024Z,1.60
2022-09-29T16:58:33.035Z,1.30
2022-09-29T17:01:01.388Z,1.25
2022-09-29T17:03:30.873Z,1.63
2022-09-29T17:06:06.100Z,1.40
2022-09-29T17:08:35.192Z,1.35
2022-09-29T18:59:15.190Z,3.28
2022-09-29T19:01:43.207Z,2.20
2022-09-29T19:04:11.480Z,2.20
2022-09-29T19:06:39.681Z,2.83
2022-09-29T19:09:07.731Z,2.83
2022-09-29T19:11:35.734Z,2.25
2022-09-29T19:14:04.296Z,2.15
2022-09-29T19:16:34.097Z,1.73
2022-09-29T19:19:04.719Z,1.60
2022-09-29T19:21:33.323Z,3.10
2022-09-29T19:24:01.688Z,2.58
2022-09-29T19:26:30.459Z,1.50
2022-09-29T19:28:59.824Z,2.28
2022-09-29T19:31:27.911Z,1.70
2022-09-29T19:33:57.749Z,1.67
2022-09-29T19:36:25.907Z,2.30
2022-09-29T19:38:54.008Z,3.05
2022-09-29T19:41:25.378Z,1.45
2022-09-29T19:43:53.389Z,2.05
2022-09-29T19:46:22.422Z,3.60
2022-09-29T19:48:51.380Z,2.20
2022-09-29T19:51:40.671Z,2.40
2022-09-29T19:54:14.799Z,2.05
2022-09-29T19:56:44.734Z,2.53
2022-09-29T19:59:15.037Z,2.28
2022-09-29T20:01:45.353Z,2.40
2022-09-29T20:04:15.058Z,4.60
2022-09-29T20:06:45.854Z,2.30
2022-09-29T20:09:14.476Z,2.30
2022-09-29T20:11:43.323Z,2.40
2022-09-29T20:14:13.446Z,2.25
2022-09-29T20:16:43.621Z,2.08
2022-09-29T20:19:16.793Z,2.33
2022-09-29T20:21:48.971Z,2.33
2022-09-29T20:24:19.080Z,2.03
2022-09-29T20:26:48.658Z,2.38
2022-09-29T20:29:19.529Z,2.53
2022-09-29T20:31:47.959Z,1.80
2022-09-29T20:34:18.354Z,1.92
2022-09-29T20:36:53.579Z,2.30
2022-09-29T20:39:24.528Z,6.75
2022-09-29T20:41:54.034Z,4.95
2022-09-29T20:44:25.722Z,2.72
2022-09-29T20:46:54.488Z,3.47
2022-09-29T20:49:22.541Z,3.65
2022-09-29T20:51:52.657Z,2.60
2022-09-29T20:54:21.528Z,1.95
2022-09-29T20:56:59.914Z,2.28
2022-09-29T20:59:30.484Z,2.58
2022-09-29T21:01:58.576Z,2.25
2022-09-29T21:04:27.427Z,2.53
2022-09-29T21:06:56.849Z,2.90
2022-09-29T21:09:26.324Z,2.65
2022-09-29T21:11:55.730Z,2.50
2022-09-29T21:14:28.008Z,2.40
2022-09-29T21:16:56.085Z,2.80
2022-09-29T21:19:26.069Z,2.28
2022-09-29T21:21:56.380Z,2.88
2022-09-29T21:24:24.495Z,2.67
2022-09-29T21:26:52.674Z,2.50
2022-09-29T21:29:20.853Z,2.42
2022-09-29T21:31:49.093Z,2.47
2022-09-29T21:34:17.471Z,2.78
2022-09-29T21:36:45.628Z,2.80
2022-09-29T21:39:15.329Z,2.88
2022-09-29T21:41:44.622Z,5.50
2022-09-29T21:44:15.341Z,2.90
2022-09-29T21:46:43.887Z,2.72
2022-09-29T21:49:13.168Z,2.70
2022-09-29T21:51:44.155Z,2.90
2022-09-29T21:54:15.797Z,2.80
2022-09-29T21:56:45.596Z,2.80
2022-09-29T21:59:15.891Z,3.00
2022-09-29T22:01:44.668Z,2.53
2022-09-29T22:04:13.504Z,2.80
2022-09-29T22:06:45.098Z,2.63
2022-09-29T22:09:18.551Z,2.60
2022-09-29T22:11:48.514Z,6.88
2022-09-29T22:14:16.956Z,2.63
2022-09-29T22:16:45.383Z,2.55
2022-09-29T22:19:29.768Z,3.13
2022-09-29T22:21:58.295Z,3.17
2022-09-29T22:24:28.450Z,2.23
2022-09-29T22:26:56.464Z,2.30
2022-09-29T22:29:24.691Z,2.47
2022-09-29T22:31:52.939Z,2.70
2022-09-29T22:34:20.916Z,2.80
2022-09-29T22:36:49.026Z,2.80
2022-09-29T22:39:16.949Z,2.37
2022-09-29T22:41:46.233Z,2.72
2022-09-29T22:44:14.612Z,2.70
2022-09-29T22:46:42.622Z,2.83
2022-09-29T22:49:10.778Z,3.03
2022-09-29T22:51:39.183Z,2.53
2022-09-29T22:54:07.877Z,2.80
2022-09-29T22:56:35.857Z,3.87
2022-09-29T22:59:05.996Z,2.73
2022-09-29T23:01:34.366Z,3.20
2022-09-29T23:04:04.089Z,3.13
2022-09-29T23:06:32.480Z,3.37
2022-09-29T23:09:00.974Z,2.27
2022-09-29T23:11:30.004Z,3.40
2022-09-29T23:14:00.437Z,3.63
2022-09-29T23:16:29.885Z,2.80
2022-09-29T23:18:59.516Z,3.50
2022-09-29T23:21:27.997Z,3.50
2022-09-29T23:23:58.069Z,6.43
2022-09-29T23:26:27.214Z,3.27
2022-09-29T23:28:56.320Z,3.10
2022-09-29T23:31:24.612Z,3.17
2022-09-29T23:33:54.849Z,3.37
2022-09-29T23:36:23.750Z,2.87
2022-09-29T23:39:09.630Z,2.77
2022-09-29T23:41:39.786Z,3.10
2022-09-29T23:44:07.953Z,3.67
2022-09-29T23:46:37.869Z,3.67
2022-09-29T23:49:10.082Z,3.83
2022-09-29T23:51:39.693Z,2.93
2022-09-29T23:54:08.589Z,3.40
2022-09-29T23:56:36.969Z,3.17
2022-09-29T23:59:05.138Z,3.30
